sensor_id;sensor_type;location;lat;lon;timestamp;pressure;altitude;pressure_sealevel;temperature;humidity
79242;BME280;68670;48.720;9.118;2023-06-22T00:02:00;96895.31;;;20.24;76.12
79242;BME280;68670;48.720;9.118;2023-06-22T00:04:26;96899.09;;;20.14;76.92
79242;BME280;68670;48.720;9.118;2023-06-22T00:06:52;96882.72;;;20.12;76.38
79242;BME280;68670;48.720;9.118;2023-06-22T00:09:17;96875.31;;;20.22;76.70
79242;BME280;68670;48.720;9.118;2023-06-22T00:11:42;96892.09;;;20.17;76.47
79242;BME280;68670;48.720;9.118;2023-06-22T00:14:10;96894.97;;;20.11;76.80
79242;BME280;68670;48.720;9.118;2023-06-22T00:16:35;96894.63;;;19.99;77.65
79242;BME280;68670;48.720;9.118;2023-06-22T00:19:03;96902.00;;;19.90;77.57
79242;BME280;68670;48.720;9.118;2023-06-22T00:21:28;96899.22;;;19.90;78.35
79242;BME280;68670;48.720;9.118;2023-06-22T00:23:54;96900.94;;;19.86;78.50
79242;BME280;68670;48.720;9.118;2023-06-22T00:26:24;96906.13;;;19.93;79.01
79242;BME280;68670;48.720;9.118;2023-06-22T00:28:52;96903.03;;;19.94;78.08
79242;BME280;68670;48.720;9.118;2023-06-22T00:31:17;96908.75;;;19.84;78.29
79242;BME280;68670;48.720;9.118;2023-06-22T00:33:45;96899.09;;;19.82;78.55
79242;BME280;68670;48.720;9.118;2023-06-22T00:36:10;96894.56;;;19.86;77.66
79242;BME280;68670;48.720;9.118;2023-06-22T00:38:38;96886.00;;;19.82;78.65
79242;BME280;68670;48.720;9.118;2023-06-22T00:41:05;96883.41;;;19.72;79.17
79242;BME280;68670;48.720;9.118;2023-06-22T00:43:30;96879.88;;;19.66;78.75
79242;BME280;68670;48.720;9.118;2023-06-22T00:45:56;96896.53;;;19.66;79.04
79242;BME280;68670;48.720;9.118;2023-06-22T00:48:22;96895.72;;;19.66;79.11
79242;BME280;68670;48.720;9.118;2023-06-22T00:50:47;96900.91;;;19.72;78.95
79242;BME280;68670;48.720;9.118;2023-06-22T00:53:15;96902.78;;;19.77;78.81
79242;BME280;68670;48.720;9.118;2023-06-22T00:55:44;96906.22;;;19.69;78.95
79242;BME280;68670;48.720;9.118;2023-06-22T00:58:13;96913.22;;;19.66;79.20
79242;BME280;68670;48.720;9.118;2023-06-22T01:00:39;96911.41;;;19.75;78.45
79242;BME280;68670;48.720;9.118;2023-06-22T01:03:08;96921.63;;;19.80;78.09
79242;BME280;68670;48.720;9.118;2023-06-22T01:05:35;96942.63;;;19.86;77.91
79242;BME280;68670;48.720;9.118;2023-06-22T01:08:18;96945.72;;;19.85;78.19
79242;BME280;68670;48.720;9.118;2023-06-22T01:14:04;96931.16;;;19.74;78.61
79242;BME280;68670;48.720;9.118;2023-06-22T01:16:35;96908.63;;;19.57;79.23
79242;BME280;68670;48.720;9.118;2023-06-22T01:21:57;96922.44;;;19.62;78.86
79242;BME280;68670;48.720;9.118;2023-06-22T01:24:48;96907.72;;;19.61;79.17
79242;BME280;68670;48.720;9.118;2023-06-22T01:29:57;96902.16;;;19.42;79.58
79242;BME280;68670;48.720;9.118;2023-06-22T01:32:28;96922.03;;;19.50;79.61
79242;BME280;68670;48.720;9.118;2023-06-22T01:34:56;96911.47;;;19.52;79.59
79242;BME280;68670;48.720;9.118;2023-06-22T01:37:23;96889.38;;;19.41;80.33
79242;BME280;68670;48.720;9.118;2023-06-22T01:39:48;96887.03;;;19.30;79.70
79242;BME280;68670;48.720;9.118;2023-06-22T01:42:14;96894.84;;;19.28;80.22
79242;BME280;68670;48.720;9.118;2023-06-22T01:44:42;96893.56;;;19.20;80.62
79242;BME280;68670;48.720;9.118;2023-06-22T01:47:08;96898.50;;;19.23;80.29
79242;BME280;68670;48.720;9.118;2023-06-22T01:49:38;96891.91;;;19.19;80.70
79242;BME280;68670;48.720;9.118;2023-06-22T01:52:04;96901.97;;;19.15;81.08
79242;BME280;68670;48.720;9.118;2023-06-22T01:54:30;96910.91;;;19.12;81.17
79242;BME280;68670;48.720;9.118;2023-06-22T01:56:57;96909.03;;;19.26;80.62
79242;BME280;68670;48.720;9.118;2023-06-22T01:59:27;96899.56;;;19.27;80.54
79242;BME280;68670;48.720;9.118;2023-06-22T02:02:01;96910.81;;;19.17;80.99
79242;BME280;68670;48.720;9.118;2023-06-22T02:04:34;96921.84;;;19.22;80.70
79242;BME280;68670;48.720;9.118;2023-06-22T02:07:08;96913.97;;;19.29;80.43
79242;BME280;68670;48.720;9.118;2023-06-22T02:09:38;96914.81;;;19.30;80.36
79242;BME280;68670;48.720;9.118;2023-06-22T02:12:06;96921.66;;;19.37;79.76
79242;BME280;68670;48.720;9.118;2023-06-22T02:14:32;96921.13;;;19.35;80.29
79242;BME280;68670;48.720;9.118;2023-06-22T02:16:59;96908.25;;;19.21;80.48
79242;BME280;68670;48.720;9.118;2023-06-22T02:19:24;96911.78;;;19.07;81.02
79242;BME280;68670;48.720;9.118;2023-06-22T02:21:50;96930.56;;;19.16;80.56
79242;BME280;68670;48.720;9.118;2023-06-22T02:24:16;96917.81;;;19.33;79.69
79242;BME280;68670;48.720;9.118;2023-06-22T02:26:42;96900.63;;;19.31;80.08
79242;BME280;68670;48.720;9.118;2023-06-22T02:29:08;96896.56;;;19.24;80.19
79242;BME280;68670;48.720;9.118;2023-06-22T02:31:33;96901.69;;;19.17;81.09
79242;BME280;68670;48.720;9.118;2023-06-22T02:33:59;96898.66;;;19.13;80.77
79242;BME280;68670;48.720;9.118;2023-06-22T02:36:25;96898.28;;;19.20;80.66
79242;BME280;68670;48.720;9.118;2023-06-22T02:38:51;96904.44;;;19.17;80.75
79242;BME280;68670;48.720;9.118;2023-06-22T02:41:17;96897.06;;;19.07;81.59
79242;BME280;68670;48.720;9.118;2023-06-22T02:43:46;96883.91;;;18.94;81.39
79242;BME280;68670;48.720;9.118;2023-06-22T02:46:12;96886.97;;;18.92;81.53
79242;BME280;68670;48.720;9.118;2023-06-22T02:48:41;96890.59;;;18.93;81.24
79242;BME280;68670;48.720;9.118;2023-06-22T02:51:07;96889.09;;;19.00;81.27
79242;BME280;68670;48.720;9.118;2023-06-22T02:53:33;96883.19;;;19.07;81.34
79242;BME280;68670;48.720;9.118;2023-06-22T02:56:02;96869.97;;;18.99;81.73
79242;BME280;68670;48.720;9.118;2023-06-22T02:58:30;96873.88;;;18.98;81.56
79242;BME280;68670;48.720;9.118;2023-06-22T03:00:56;96865.84;;;18.96;81.42
79242;BME280;68670;48.720;9.118;2023-06-22T03:03:21;96864.63;;;18.84;81.56
79242;BME280;68670;48.720;9.118;2023-06-22T03:05:53;96868.44;;;18.88;81.79
79242;BME280;68670;48.720;9.118;2023-06-22T03:08:19;96869.25;;;18.88;81.71
79242;BME280;68670;48.720;9.118;2023-06-22T03:10:44;96867.72;;;19.01;80.89
79242;BME280;68670;48.720;9.118;2023-06-22T03:13:09;96872.09;;;19.07;81.29
79242;BME280;68670;48.720;9.118;2023-06-22T03:15:34;96874.88;;;19.07;81.12
79242;BME280;68670;48.720;9.118;2023-06-22T03:18:00;96871.63;;;19.00;81.74
79242;BME280;68670;48.720;9.118;2023-06-22T03:20:27;96873.41;;;18.91;82.05
79242;BME280;68670;48.720;9.118;2023-06-22T03:22:59;96869.56;;;18.87;81.93
79242;BME280;68670;48.720;9.118;2023-06-22T03:25:24;96875.78;;;18.78;82.48
79242;BME280;68670;48.720;9.118;2023-06-22T03:27:49;96875.19;;;18.82;82.60
79242;BME280;68670;48.720;9.118;2023-06-22T03:30:15;96857.34;;;18.88;82.63
79242;BME280;68670;48.720;9.118;2023-06-22T03:32:42;96872.34;;;18.87;82.53
79242;BME280;68670;48.720;9.118;2023-06-22T03:35:08;96866.88;;;18.82;82.76
79242;BME280;68670;48.720;9.118;2023-06-22T03:37:34;96869.03;;;18.85;82.28
79242;BME280;68670;48.720;9.118;2023-06-22T03:40:02;96876.44;;;18.70;82.83
79242;BME280;68670;48.720;9.118;2023-06-22T03:42:30;96865.63;;;18.69;83.49
79242;BME280;68670;48.720;9.118;2023-06-22T03:44:58;96867.28;;;18.70;82.97
79242;BME280;68670;48.720;9.118;2023-06-22T03:47:23;96851.63;;;18.79;82.89
79242;BME280;68670;48.720;9.118;2023-06-22T03:49:50;96860.19;;;18.83;82.74
79242;BME280;68670;48.720;9.118;2023-06-22T03:52:19;96859.97;;;18.79;82.90
79242;BME280;68670;48.720;9.118;2023-06-22T03:54:47;96857.47;;;18.77;82.88
79242;BME280;68670;48.720;9.118;2023-06-22T03:57:15;96859.72;;;18.75;82.89
79242;BME280;68670;48.720;9.118;2023-06-22T03:59:40;96857.00;;;18.70;83.53
79242;BME280;68670;48.720;9.118;2023-06-22T04:02:08;96860.31;;;18.72;83.68
79242;BME280;68670;48.720;9.118;2023-06-22T04:04:35;96860.31;;;18.72;84.13
79242;BME280;68670;48.720;9.118;2023-06-22T04:07:00;96859.72;;;18.75;83.50
79242;BME280;68670;48.720;9.118;2023-06-22T04:09:28;96853.94;;;18.72;83.72
79242;BME280;68670;48.720;9.118;2023-06-22T04:11:53;96856.66;;;18.77;83.61
79242;BME280;68670;48.720;9.118;2023-06-22T04:14:19;96853.59;;;18.78;83.48
79242;BME280;68670;48.720;9.118;2023-06-22T04:16:46;96852.53;;;18.74;84.06
79242;BME280;68670;48.720;9.118;2023-06-22T04:19:11;96852.53;;;18.74;84.15
79242;BME280;68670;48.720;9.118;2023-06-22T04:21:44;96853.00;;;18.82;83.68
79242;BME280;68670;48.720;9.118;2023-06-22T04:24:12;96844.00;;;18.90;83.29
79242;BME280;68670;48.720;9.118;2023-06-22T04:26:39;96842.81;;;18.96;84.59
79242;BME280;68670;48.720;9.118;2023-06-22T04:29:10;96839.97;;;19.01;82.99
79242;BME280;68670;48.720;9.118;2023-06-22T04:31:38;96837.34;;;19.09;83.05
79242;BME280;68670;48.720;9.118;2023-06-22T04:34:07;96834.88;;;19.08;83.28
79242;BME280;68670;48.720;9.118;2023-06-22T04:36:37;96828.25;;;19.04;83.56
79242;BME280;68670;48.720;9.118;2023-06-22T04:39:12;96840.13;;;19.09;82.78
79242;BME280;68670;48.720;9.118;2023-06-22T04:41:40;96831.81;;;19.09;82.92
79242;BME280;68670;48.720;9.118;2023-06-22T04:44:16;96827.50;;;19.17;82.33
79242;BME280;68670;48.720;9.118;2023-06-22T04:46:52;96826.31;;;19.23;81.87
79242;BME280;68670;48.720;9.118;2023-06-22T04:49:26;96824.00;;;19.30;81.00
79242;BME280;68670;48.720;9.118;2023-06-22T04:52:01;96822.25;;;19.34;81.19
79242;BME280;68670;48.720;9.118;2023-06-22T04:54:29;96819.41;;;19.39;80.76
79242;BME280;68670;48.720;9.118;2023-06-22T04:56:57;96819.34;;;19.44;80.63
79242;BME280;68670;48.720;9.118;2023-06-22T04:59:29;96824.78;;;19.50;80.36
79242;BME280;68670;48.720;9.118;2023-06-22T05:02:00;96819.19;;;19.55;80.04
79242;BME280;68670;48.720;9.118;2023-06-22T05:04:27;96813.56;;;19.60;79.44
79242;BME280;68670;48.720;9.118;2023-06-22T05:06:53;96818.50;;;19.63;80.34
79242;BME280;68670;48.720;9.118;2023-06-22T05:09:19;96825.13;;;19.67;80.22
79242;BME280;68670;48.720;9.118;2023-06-22T05:11:48;96817.31;;;19.69;80.52
79242;BME280;68670;48.720;9.118;2023-06-22T05:14:13;96817.13;;;19.79;79.20
79242;BME280;68670;48.720;9.118;2023-06-22T05:16:42;96818.16;;;19.83;80.18
79242;BME280;68670;48.720;9.118;2023-06-22T05:19:08;96808.59;;;19.89;79.29
79242;BME280;68670;48.720;9.118;2023-06-22T05:21:35;96806.25;;;19.96;79.37
79242;BME280;68670;48.720;9.118;2023-06-22T05:24:03;96812.25;;;20.03;78.52
79242;BME280;68670;48.720;9.118;2023-06-22T05:26:33;96811.44;;;20.17;77.35
79242;BME280;68670;48.720;9.118;2023-06-22T05:29:02;96798.03;;;20.19;77.50
79242;BME280;68670;48.720;9.118;2023-06-22T05:31:28;96800.13;;;20.27;75.95
79242;BME280;68670;48.720;9.118;2023-06-22T05:33:54;96787.16;;;20.36;75.67
79242;BME280;68670;48.720;9.118;2023-06-22T05:36:20;96792.03;;;20.44;75.88
79242;BME280;68670;48.720;9.118;2023-06-22T05:38:47;96796.66;;;20.49;73.25
79242;BME280;68670;48.720;9.118;2023-06-22T05:41:12;96803.47;;;20.56;72.37
79242;BME280;68670;48.720;9.118;2023-06-22T05:43:40;96791.72;;;20.59;73.06
79242;BME280;68670;48.720;9.118;2023-06-22T05:46:10;96792.22;;;20.61;73.72
79242;BME280;68670;48.720;9.118;2023-06-22T05:48:37;96799.97;;;20.64;72.53
79242;BME280;68670;48.720;9.118;2023-06-22T05:51:07;96790.38;;;20.70;73.27
79242;BME280;68670;48.720;9.118;2023-06-22T05:53:32;96797.28;;;20.73;71.87
79242;BME280;68670;48.720;9.118;2023-06-22T05:55:57;96791.28;;;20.79;71.50
79242;BME280;68670;48.720;9.118;2023-06-22T05:58:23;96790.66;;;20.83;71.17
79242;BME280;68670;48.720;9.118;2023-06-22T06:00:48;96800.13;;;20.82;72.12
79242;BME280;68670;48.720;9.118;2023-06-22T06:03:16;96789.66;;;20.78;71.74
79242;BME280;68670;48.720;9.118;2023-06-22T06:05:44;96792.44;;;20.78;72.18
79242;BME280;68670;48.720;9.118;2023-06-22T06:08:10;96780.78;;;20.76;71.66
79242;BME280;68670;48.720;9.118;2023-06-22T06:10:37;96786.88;;;20.78;72.63
79242;BME280;68670;48.720;9.118;2023-06-22T06:13:05;96786.34;;;20.76;72.63
79242;BME280;68670;48.720;9.118;2023-06-22T06:15:31;96785.72;;;20.79;70.29
79242;BME280;68670;48.720;9.118;2023-06-22T06:17:59;96787.25;;;20.86;70.91
79242;BME280;68670;48.720;9.118;2023-06-22T06:20:29;96781.56;;;20.91;71.68
79242;BME280;68670;48.720;9.118;2023-06-22T06:22:54;96791.47;;;20.97;72.25
79242;BME280;68670;48.720;9.118;2023-06-22T06:25:20;96789.59;;;21.06;73.44
79242;BME280;68670;48.720;9.118;2023-06-22T06:27:47;96789.34;;;21.16;73.22
79242;BME280;68670;48.720;9.118;2023-06-22T06:30:18;96785.34;;;21.22;72.13
79242;BME280;68670;48.720;9.118;2023-06-22T06:32:47;96791.63;;;21.28;71.50
79242;BME280;68670;48.720;9.118;2023-06-22T06:35:14;96787.78;;;21.37;71.37
79242;BME280;68670;48.720;9.118;2023-06-22T06:37:47;96789.31;;;21.43;70.49
79242;BME280;68670;48.720;9.118;2023-06-22T06:40:13;96787.22;;;21.49;68.84
79242;BME280;68670;48.720;9.118;2023-06-22T06:42:47;96796.78;;;21.57;68.82
79242;BME280;68670;48.720;9.118;2023-06-22T06:45:16;96802.75;;;21.64;69.29
79242;BME280;68670;48.720;9.118;2023-06-22T06:47:42;96788.19;;;21.67;67.01
79242;BME280;68670;48.720;9.118;2023-06-22T06:50:08;96797.56;;;21.71;67.07
79242;BME280;68670;48.720;9.118;2023-06-22T06:52:34;96787.09;;;21.76;67.31
79242;BME280;68670;48.720;9.118;2023-06-22T06:55:00;96792.84;;;21.80;66.94
79242;BME280;68670;48.720;9.118;2023-06-22T06:57:25;96792.41;;;21.87;67.55
79242;BME280;68670;48.720;9.118;2023-06-22T06:59:57;96792.97;;;21.97;69.01
79242;BME280;68670;48.720;9.118;2023-06-22T07:02:25;96782.84;;;22.01;67.61
79242;BME280;68670;48.720;9.118;2023-06-22T07:04:51;96784.72;;;22.15;67.55
79242;BME280;68670;48.720;9.118;2023-06-22T07:07:16;96783.25;;;22.17;65.99
79242;BME280;68670;48.720;9.118;2023-06-22T07:09:41;96781.66;;;22.25;67.10
79242;BME280;68670;48.720;9.118;2023-06-22T07:12:07;96776.44;;;22.32;67.54
79242;BME280;68670;48.720;9.118;2023-06-22T07:14:33;96770.09;;;22.40;66.77
79242;BME280;68670;48.720;9.118;2023-06-22T07:17:00;96772.56;;;22.50;66.61
79242;BME280;68670;48.720;9.118;2023-06-22T07:19:27;96771.28;;;22.56;65.09
79242;BME280;68670;48.720;9.118;2023-06-22T07:21:53;96766.19;;;22.58;63.24
79242;BME280;68670;48.720;9.118;2023-06-22T07:24:22;96760.66;;;22.67;65.24
79242;BME280;68670;48.720;9.118;2023-06-22T07:26:48;96752.63;;;22.74;64.32
79242;BME280;68670;48.720;9.118;2023-06-22T07:29:17;96746.25;;;22.82;63.87
79242;BME280;68670;48.720;9.118;2023-06-22T07:31:45;96749.06;;;22.91;64.62
79242;BME280;68670;48.720;9.118;2023-06-22T07:34:10;96741.69;;;23.03;63.51
79242;BME280;68670;48.720;9.118;2023-06-22T07:36:38;96737.91;;;23.08;62.55
79242;BME280;68670;48.720;9.118;2023-06-22T07:39:04;96732.81;;;23.19;62.86
79242;BME280;68670;48.720;9.118;2023-06-22T07:41:32;96728.38;;;23.26;63.38
79242;BME280;68670;48.720;9.118;2023-06-22T07:44:02;96731.03;;;23.31;61.64
79242;BME280;68670;48.720;9.118;2023-06-22T07:46:30;96725.44;;;23.31;60.49
79242;BME280;68670;48.720;9.118;2023-06-22T07:48:56;96722.47;;;23.36;61.50
79242;BME280;68670;48.720;9.118;2023-06-22T07:51:25;96717.84;;;23.49;63.66
79242;BME280;68670;48.720;9.118;2023-06-22T07:53:50;96711.28;;;23.62;63.88
79242;BME280;68670;48.720;9.118;2023-06-22T07:56:20;96717.00;;;23.74;61.93
79242;BME280;68670;48.720;9.118;2023-06-22T07:58:48;96712.53;;;23.82;60.97
79242;BME280;68670;48.720;9.118;2023-06-22T08:01:16;96714.34;;;23.95;60.97
79242;BME280;68670;48.720;9.118;2023-06-22T08:03:42;96725.16;;;24.05;62.19
79242;BME280;68670;48.720;9.118;2023-06-22T08:06:08;96732.66;;;24.22;62.11
79242;BME280;68670;48.720;9.118;2023-06-22T08:08:36;96745.31;;;24.37;61.09
79242;BME280;68670;48.720;9.118;2023-06-22T08:11:02;96762.56;;;24.48;59.90
79242;BME280;68670;48.720;9.118;2023-06-22T08:13:27;96765.34;;;24.56;59.29
79242;BME280;68670;48.720;9.118;2023-06-22T08:15:53;96771.56;;;24.62;58.11
79242;BME280;68670;48.720;9.118;2023-06-22T08:18:19;96768.13;;;24.56;57.33
79242;BME280;68670;48.720;9.118;2023-06-22T08:20:46;96771.25;;;24.63;55.72
79242;BME280;68670;48.720;9.118;2023-06-22T08:23:14;96774.28;;;24.79;55.56
79242;BME280;68670;48.720;9.118;2023-06-22T08:25:41;96778.69;;;24.89;55.26
79242;BME280;68670;48.720;9.118;2023-06-22T08:28:06;96779.34;;;24.86;55.60
79242;BME280;68670;48.720;9.118;2023-06-22T08:30:32;96771.72;;;24.95;55.03
79242;BME280;68670;48.720;9.118;2023-06-22T08:32:57;96786.81;;;25.11;55.14
79242;BME280;68670;48.720;9.118;2023-06-22T08:35:23;96795.03;;;25.16;54.92
79242;BME280;68670;48.720;9.118;2023-06-22T08:37:48;96786.56;;;25.25;54.04
79242;BME280;68670;48.720;9.118;2023-06-22T08:40:19;96781.59;;;25.30;54.58
79242;BME280;68670;48.720;9.118;2023-06-22T08:42:45;96782.06;;;25.32;55.30
79242;BME280;68670;48.720;9.118;2023-06-22T08:45:13;96772.50;;;25.33;54.58
79242;BME280;68670;48.720;9.118;2023-06-22T08:47:41;96769.06;;;25.49;55.35
79242;BME280;68670;48.720;9.118;2023-06-22T08:50:08;96761.94;;;25.72;55.18
79242;BME280;68670;48.720;9.118;2023-06-22T08:52:36;96759.13;;;26.05;54.69
79242;BME280;68670;48.720;9.118;2023-06-22T08:55:02;96765.53;;;26.26;54.88
79242;BME280;68670;48.720;9.118;2023-06-22T08:57:30;96767.06;;;26.36;53.27
79242;BME280;68670;48.720;9.118;2023-06-22T08:59:59;96776.38;;;26.16;51.22
79242;BME280;68670;48.720;9.118;2023-06-22T09:02:27;96767.41;;;25.89;52.36
79242;BME280;68670;48.720;9.118;2023-06-22T09:05:04;96764.13;;;25.87;52.91
79242;BME280;68670;48.720;9.118;2023-06-22T09:07:29;96750.56;;;25.89;55.57
79242;BME280;68670;48.720;9.118;2023-06-22T09:09:59;96750.38;;;26.06;57.01
79242;BME280;68670;48.720;9.118;2023-06-22T09:12:29;96760.06;;;26.42;54.04
79242;BME280;68670;48.720;9.118;2023-06-22T09:14:55;96769.81;;;26.69;52.56
79242;BME280;68670;48.720;9.118;2023-06-22T09:17:26;96769.72;;;27.02;51.68
79242;BME280;68670;48.720;9.118;2023-06-22T09:19:52;96768.19;;;27.29;51.20
79242;BME280;68670;48.720;9.118;2023-06-22T09:22:17;96764.94;;;27.55;52.33
79242;BME280;68670;48.720;9.118;2023-06-22T09:24:45;96770.44;;;27.63;50.59
79242;BME280;68670;48.720;9.118;2023-06-22T09:27:10;96761.78;;;27.56;49.92
79242;BME280;68670;48.720;9.118;2023-06-22T09:29:40;96738.91;;;27.58;50.61
79242;BME280;68670;48.720;9.118;2023-06-22T09:32:08;96733.19;;;27.42;50.07
79242;BME280;68670;48.720;9.118;2023-06-22T09:34:42;96738.59;;;27.87;52.06
79242;BME280;68670;48.720;9.118;2023-06-22T09:37:08;96737.00;;;28.18;49.82
79242;BME280;68670;48.720;9.118;2023-06-22T09:39:35;96731.03;;;28.35;49.00
79242;BME280;68670;48.720;9.118;2023-06-22T09:42:02;96736.47;;;28.28;49.86
79242;BME280;68670;48.720;9.118;2023-06-22T09:44:27;96729.41;;;28.34;50.32
79242;BME280;68670;48.720;9.118;2023-06-22T09:46:55;96717.06;;;28.54;50.38
79242;BME280;68670;48.720;9.118;2023-06-22T09:49:25;96711.88;;;28.72;50.82
79242;BME280;68670;48.720;9.118;2023-06-22T09:51:53;96713.41;;;28.69;49.43
79242;BME280;68670;48.720;9.118;2023-06-22T09:54:20;96700.75;;;28.95;49.10
79242;BME280;68670;48.720;9.118;2023-06-22T09:56:46;96697.00;;;29.06;49.73
79242;BME280;68670;48.720;9.118;2023-06-22T09:59:13;96688.19;;;29.27;46.84
79242;BME280;68670;48.720;9.118;2023-06-22T10:01:38;96681.97;;;29.37;47.76
79242;BME280;68670;48.720;9.118;2023-06-22T10:04:06;96683.00;;;29.29;48.43
79242;BME280;68670;48.720;9.118;2023-06-22T10:06:31;96694.28;;;29.10;46.69
79242;BME280;68670;48.720;9.118;2023-06-22T10:08:59;96685.00;;;28.94;48.89
79242;BME280;68670;48.720;9.118;2023-06-22T10:11:27;96678.50;;;28.90;49.69
79242;BME280;68670;48.720;9.118;2023-06-22T10:13:55;96675.31;;;28.91;51.16
79242;BME280;68670;48.720;9.118;2023-06-22T10:16:23;96673.81;;;28.97;50.94
79242;BME280;68670;48.720;9.118;2023-06-22T10:18:51;96669.38;;;28.81;48.63
79242;BME280;68670;48.720;9.118;2023-06-22T10:21:19;96673.84;;;28.66;48.49
79242;BME280;68670;48.720;9.118;2023-06-22T10:23:47;96671.75;;;28.63;49.54
79242;BME280;68670;48.720;9.118;2023-06-22T10:26:17;96666.94;;;28.79;48.48
79242;BME280;68670;48.720;9.118;2023-06-22T10:28:44;96658.56;;;29.18;49.67
79242;BME280;68670;48.720;9.118;2023-06-22T10:31:09;96662.19;;;29.53;47.79
79242;BME280;68670;48.720;9.118;2023-06-22T10:33:41;96654.66;;;29.80;48.68
79242;BME280;68670;48.720;9.118;2023-06-22T10:36:11;96654.91;;;30.14;46.89
79242;BME280;68670;48.720;9.118;2023-06-22T10:38:36;96644.72;;;30.32;46.96
79242;BME280;68670;48.720;9.118;2023-06-22T10:41:02;96638.13;;;30.47;45.73
79242;BME280;68670;48.720;9.118;2023-06-22T10:43:27;96633.63;;;30.95;44.33
79242;BME280;68670;48.720;9.118;2023-06-22T10:45:55;96643.91;;;31.07;43.22
79242;BME280;68670;48.720;9.118;2023-06-22T10:48:20;96647.47;;;30.74;42.35
79242;BME280;68670;48.720;9.118;2023-06-22T10:50:47;96652.69;;;30.72;44.69
79242;BME280;68670;48.720;9.118;2023-06-22T10:53:13;96655.53;;;30.49;44.42
79242;BME280;68670;48.720;9.118;2023-06-22T10:55:41;96650.81;;;30.34;44.84
79242;BME280;68670;48.720;9.118;2023-06-22T10:58:08;96646.66;;;30.28;45.42
79242;BME280;68670;48.720;9.118;2023-06-22T11:00:36;96638.19;;;30.28;46.29
79242;BME280;68670;48.720;9.118;2023-06-22T11:03:01;96632.66;;;30.35;46.25
79242;BME280;68670;48.720;9.118;2023-06-22T11:05:26;96632.59;;;30.31;45.30
79242;BME280;68670;48.720;9.118;2023-06-22T11:07:56;96633.06;;;30.11;46.00
79242;BME280;68670;48.720;9.118;2023-06-22T11:10:22;96641.53;;;29.91;45.94
79242;BME280;68670;48.720;9.118;2023-06-22T11:12:49;96646.78;;;29.70;46.59
79242;BME280;68670;48.720;9.118;2023-06-22T11:15:17;96652.78;;;29.68;48.11
79242;BME280;68670;48.720;9.118;2023-06-22T11:17:45;96655.84;;;29.60;46.37
79242;BME280;68670;48.720;9.118;2023-06-22T11:20:12;96654.16;;;29.55;49.41
79242;BME280;68670;48.720;9.118;2023-06-22T11:22:40;96637.84;;;29.29;46.38
79242;BME280;68670;48.720;9.118;2023-06-22T11:25:06;96639.03;;;29.28;49.12
79242;BME280;68670;48.720;9.118;2023-06-22T11:27:34;96644.09;;;29.19;47.79
79242;BME280;68670;48.720;9.118;2023-06-22T11:30:00;96647.94;;;29.30;49.22
79242;BME280;68670;48.720;9.118;2023-06-22T11:32:27;96650.94;;;29.57;48.29
79242;BME280;68670;48.720;9.118;2023-06-22T11:34:53;96635.03;;;29.68;45.98
79242;BME280;68670;48.720;9.118;2023-06-22T11:37:18;96632.31;;;29.94;47.12
79242;BME280;68670;48.720;9.118;2023-06-22T11:39:46;96624.78;;;30.21;46.96
79242;BME280;68670;48.720;9.118;2023-06-22T11:42:11;96626.28;;;30.64;46.84
79242;BME280;68670;48.720;9.118;2023-06-22T11:44:42;96620.63;;;30.64;46.61
79242;BME280;68670;48.720;9.118;2023-06-22T11:47:07;96616.09;;;30.83;46.71
79242;BME280;68670;48.720;9.118;2023-06-22T11:49:33;96615.22;;;30.79;45.92
79242;BME280;68670;48.720;9.118;2023-06-22T11:52:00;96626.13;;;30.54;44.04
79242;BME280;68670;48.720;9.118;2023-06-22T11:54:26;96624.16;;;30.58;45.88
79242;BME280;68670;48.720;9.118;2023-06-22T11:56:51;96643.03;;;30.50;47.42
79242;BME280;68670;48.720;9.118;2023-06-22T11:59:16;96634.97;;;30.52;47.69
79242;BME280;68670;48.720;9.118;2023-06-22T12:01:41;96645.50;;;30.55;48.00
79242;BME280;68670;48.720;9.118;2023-06-22T12:04:09;96643.88;;;30.54;46.05
79242;BME280;68670;48.720;9.118;2023-06-22T12:06:38;96641.38;;;30.49;47.22
79242;BME280;68670;48.720;9.118;2023-06-22T12:09:09;96638.56;;;30.26;45.85
79242;BME280;68670;48.720;9.118;2023-06-22T12:11:34;96623.69;;;30.06;46.16
79242;BME280;68670;48.720;9.118;2023-06-22T12:14:00;96629.22;;;29.99;47.25
79242;BME280;68670;48.720;9.118;2023-06-22T12:16:29;96623.16;;;29.78;44.49
79242;BME280;68670;48.720;9.118;2023-06-22T12:18:54;96625.59;;;29.80;44.51
79242;BME280;68670;48.720;9.118;2023-06-22T12:21:20;96629.38;;;29.87;48.03
79242;BME280;68670;48.720;9.118;2023-06-22T12:23:47;96632.06;;;29.80;49.65
79242;BME280;68670;48.720;9.118;2023-06-22T12:26:12;96640.31;;;29.69;45.65
79242;BME280;68670;48.720;9.118;2023-06-22T12:28:40;96633.25;;;29.60;44.79
79242;BME280;68670;48.720;9.118;2023-06-22T12:31:08;96643.91;;;29.47;46.38
79242;BME280;68670;48.720;9.118;2023-06-22T12:33:35;96655.06;;;29.24;47.76
79242;BME280;68670;48.720;9.118;2023-06-22T12:36:03;96644.59;;;29.25;48.43
79242;BME280;68670;48.720;9.118;2023-06-22T12:38:30;96644.41;;;29.14;52.55
79242;BME280;68670;48.720;9.118;2023-06-22T12:40:57;96647.50;;;29.09;48.38
79242;BME280;68670;48.720;9.118;2023-06-22T12:43:23;96656.69;;;29.06;46.97
79242;BME280;68670;48.720;9.118;2023-06-22T12:45:50;96666.63;;;29.00;48.21
79242;BME280;68670;48.720;9.118;2023-06-22T12:48:18;96675.22;;;28.88;48.75
79242;BME280;68670;48.720;9.118;2023-06-22T12:50:46;96684.50;;;28.72;49.26
79242;BME280;68670;48.720;9.118;2023-06-22T12:53:14;96693.03;;;28.60;49.19
79242;BME280;68670;48.720;9.118;2023-06-22T12:55:43;96685.16;;;28.50;50.02
79242;BME280;68670;48.720;9.118;2023-06-22T12:58:09;96691.06;;;28.45;49.98
79242;BME280;68670;48.720;9.118;2023-06-22T13:00:34;96682.16;;;28.43;52.08
79242;BME280;68670;48.720;9.118;2023-06-22T13:03:02;96680.72;;;28.49;50.76
79242;BME280;68670;48.720;9.118;2023-06-22T13:05:30;96677.75;;;28.61;50.14
79242;BME280;68670;48.720;9.118;2023-06-22T13:07:55;96675.06;;;28.49;50.76
79242;BME280;68670;48.720;9.118;2023-06-22T13:10:21;96655.53;;;28.40;50.24